Skip Navigation Links
NOAA logo - Click to go to the NOAA homepage
NOAA's National Weather Service
Alaska Aviation Weather Unit
  NWS logo - Click to go to the NWS homepage
Left Navbar Graphic     17 AKDT = 01 GMT

   
NOAA is celebrating 200 years of science, service, and stewardship. Visit the NOAA 200th celebration Web site to learn more.
USA.gov is the U.S. Government's official Web portal to all Federal, state and local government Web resources and services.
Facebook
NWS on Facebook

Important Change Regarding the AAWU Web Presence

 

Over the last several months, the AAWU has been working to navigate its webpages to a nationally supported server. Security, as well as other needs, have necessitated the change.  We have been given an extension for the site changeover while we diligently work at addressing feedback received. As of July 14, 2017, aawu.arh.noaa.gov will be discontinued. The new AAWU web address is weather.gov/aawu. It is now live and will run in-parallel with the old site until it is discontinued on July 14, 2017. Please continue to send any feedback or questions regarding the new webpages to nws.ar.aawu.webauthors@noaa.gov.  Thank you for your patience during this time of transition.
AAWU Home :: Display TAF Add Bookmark
TAF PAUN 172339Z 1800/1824  14005KT P6SM SCT015 SCT100
     FM180700 33005KT P6SM BKN035 BKN080
     FM181800 31007KT P6SM VCSH BKN025 BKN100=

2987
FTAK31 PAFA 172339
TAFAOM
TAF
METAR PAUN 172056Z AUTO 10006KT 10SM CLR M01/M02 A2951 RMK AO2 SLP997
     T10061022 51002 FZRANO=

METAR PAUN 172156Z AUTO 14005KT 10SM CLR 02/M01 A2950 RMK AO2 SLP995
 T00171011 FZRANO=

METAR PAUN 172256Z AUTO 15004KT 10SM CLR 02/M02 A2950 RMK AO2 SLP995
     T00171017 FZRANO=

METAR PAUN 172356Z AUTO 27004KT 10SM CLR 02/M01 A2950 RMK AO2 SLP994
     T00221006 10028 21033 56003 FZRANO=

SPECI PAUN 180043Z AUTO 31007KT 10SM BKN018 BKN034 02/M01 A2950 RMK AO2
     FZRANO=

METAR PAUN 180056Z AUTO 30008KT 10SM BKN020 02/M01 A2950 RMK AO2 SLP992
     T00221011 FZRANO=


NOAA's National Weather Service
Alaska Aviation Weather Unit
6930 Sand Lake Road
Anchorage, AK 99502-1845
Disclaimer
Credits
Glossary
Privacy Policy
About Us
Career Opportunities
Contact AAWU Internet Services Site last modified: April, 17th 2012